Garowe Airport


Codes: HCMW/GGR
Name: Garowe Airport
City: Garowe
Country: Somalia
Elevation: 1465 ft.

Photos at Garowe Airport


   Photos courtesy of SpottingLog. You can add your own sightings and photos by signing up for a free trial today.



No photos found.

Weather at Garowe Airport


Time (UTC)DescriptionTempratureWindCloud coverageVisibilityPressureHumidity
13-Jun-2024 03:00Few Clouds25°C18 mph, SW11%10000m1014hPa51%
13-Jun-2024 06:00Few Clouds27°C25 mph, SW13%10000m1014hPa48%
13-Jun-2024 09:00Scattered Clouds31°C22 mph, SW41%10000m1012hPa37%
13-Jun-2024 12:00Broken Clouds35°C18 mph, SW76%10000m1008hPa26%
13-Jun-2024 15:00Scattered Clouds34°C16 mph, SW36%10000m1009hPa27%
13-Jun-2024 18:00Broken Clouds31°C20 mph, SW61%10000m1010hPa33%
13-Jun-2024 21:00Few Clouds29°C22 mph, SW11%10000m1009hPa41%
14-Jun-2024 00:00Few Clouds26°C20 mph, SW12%10000m1010hPa61%
14-Jun-2024 03:00Scattered Clouds26°C16 mph, SW47%10000m1012hPa61%
14-Jun-2024 06:00Scattered Clouds30°C22 mph, SW44%10000m1012hPa45%
14-Jun-2024 09:00Broken Clouds34°C22 mph, SW73%10000m1010hPa32%
14-Jun-2024 12:00Broken Clouds36°C22 mph, SW68%10000m1007hPa27%
14-Jun-2024 15:00Scattered Clouds34°C18 mph, SW26%10000m1007hPa29%
14-Jun-2024 18:00Scattered Clouds32°C20 mph, SW40%10000m1010hPa31%
14-Jun-2024 21:00Broken Clouds30°C20 mph, SW62%10000m1009hPa34%
15-Jun-2024 00:00Scattered Clouds26°C22 mph, SW46%10000m1009hPa50%
15-Jun-2024 03:00Scattered Clouds25°C22 mph, SW39%10000m1010hPa54%
15-Jun-2024 06:00Broken Clouds30°C27 mph, SW52%10000m1012hPa44%
15-Jun-2024 09:00Overcast Clouds34°C27 mph, SW85%10000m1008hPa29%
15-Jun-2024 12:00Broken Clouds36°C25 mph, SW68%10000m1005hPa23%
15-Jun-2024 15:00Scattered Clouds33°C18 mph, SW44%10000m1007hPa26%
15-Jun-2024 18:00Broken Clouds31°C18 mph, SW61%10000m1009hPa30%
15-Jun-2024 21:00Scattered Clouds29°C18 mph, SW33%10000m1009hPa30%
16-Jun-2024 00:00Scattered Clouds27°C16 mph, SW44%10000m1009hPa38%
16-Jun-2024 03:00Few Clouds25°C18 mph, SW15%10000m1011hPa52%
16-Jun-2024 06:00Scattered Clouds30°C22 mph, SW32%10000m1011hPa37%
16-Jun-2024 09:00Overcast Clouds35°C22 mph, SW85%10000m1008hPa25%
16-Jun-2024 12:00Broken Clouds36°C20 mph, SW61%10000m1005hPa19%
16-Jun-2024 15:00Few Clouds34°C16 mph, SW18%10000m1007hPa21%
16-Jun-2024 18:00Scattered Clouds31°C13 mph, SW38%10000m1009hPa26%
16-Jun-2024 21:00Scattered Clouds27°C18 mph, S49%10000m1008hPa44%
17-Jun-2024 00:00Broken Clouds25°C20 mph, SW59%10000m1009hPa63%
17-Jun-2024 03:00Broken Clouds24°C18 mph, SW69%10000m1011hPa66%
17-Jun-2024 06:00Scattered Clouds30°C25 mph, SW48%10000m1012hPa45%
17-Jun-2024 09:00Overcast Clouds34°C22 mph, SW90%10000m1009hPa29%
17-Jun-2024 12:00Overcast Clouds35°C22 mph, SW95%10000m1006hPa26%
17-Jun-2024 15:00Broken Clouds33°C18 mph, SW73%10000m1007hPa29%
17-Jun-2024 18:00Scattered Clouds31°C13 mph, SW47%10000m1009hPa34%
17-Jun-2024 21:00Scattered Clouds28°C18 mph, S26%10000m1009hPa45%
18-Jun-2024 00:00Scattered Clouds25°C22 mph, SW47%10000m1009hPa65%